Time;durP1;ratioP1;P1;durP2;ratioP2;P2;SDS_P1;SDS_P2;PMS_P1;PMS_P2;Temp;Humidity;BMP_temperature;BMP_pressure;BME280_temperature;BME280_humidity;BME280_pressure;Samples;Min_cycle;Max_cycle;Signal;HPM_P1;HPM_P2
2023/03/04 00:00:08;;;;;;;21.03;12.43;;;0.80;99.90;;;0.44;76.42;99929.78;6285191;22;20177;-66
2023/03/04 00:02:37;;;;;;;22.13;13.43;;;0.80;99.90;;;0.41;76.40;99924.63;6286905;22;20161;-66
2023/03/04 00:05:08;;;;;;;19.40;12.73;;;0.80;99.90;;;0.41;76.56;99926.31;6286544;22;20169;-66
2023/03/04 00:07:36;;;;;;;22.13;12.23;;;0.70;99.90;;;0.41;76.67;99927.16;6285847;22;20172;-67
2023/03/04 00:10:07;;;;;;;22.80;13.17;;;0.80;99.90;;;0.43;76.48;99917.06;6284164;22;20254;-67
2023/03/04 00:12:35;;;;;;;19.60;11.50;;;0.80;99.90;;;0.43;76.66;99917.91;6283201;22;20204;-67
2023/03/04 00:15:04;;;;;;;18.57;11.77;;;0.80;99.90;;;0.46;76.51;99922.22;6284424;22;20207;-67
2023/03/04 00:17:32;;;;;;;21.93;13.40;;;0.80;99.90;;;0.46;76.60;99918.00;6285781;22;20169;-66
2023/03/04 00:20:01;;;;;;;18.27;12.37;;;0.80;99.90;;;0.50;76.71;99918.09;6284449;22;20246;-66
2023/03/04 00:22:31;;;;;;;22.63;12.23;;;0.80;99.90;;;0.52;76.60;99911.38;6284572;22;20510;-66
2023/03/04 00:24:59;;;;;;;18.47;12.10;;;0.90;99.90;;;0.56;76.17;99910.66;6286683;22;20173;-65
2023/03/04 00:27:27;;;;;;;24.47;11.53;;;0.90;99.90;;;0.59;76.66;99914.13;6288077;22;20177;-65
2023/03/04 00:29:56;;;;;;;20.07;12.13;;;0.90;99.90;;;0.62;76.37;99906.56;6287693;22;20212;-65
2023/03/04 00:32:25;;;;;;;21.20;12.87;;;0.90;99.90;;;0.63;76.29;99890.56;6285287;22;20177;-65
2023/03/04 00:34:53;;;;;;;22.47;13.70;;;0.90;99.90;;;0.64;76.41;99896.50;6287042;22;20645;-66
2023/03/04 00:37:22;;;;;;;18.90;11.53;;;0.90;99.90;;;0.67;75.93;99881.38;6286217;22;20228;-65
2023/03/04 00:39:52;;;;;;;19.67;11.37;;;0.90;99.90;;;0.65;76.19;99888.91;6284382;22;20184;-65
2023/03/04 00:42:20;;;;;;;21.40;12.70;;;1.00;99.90;;;0.64;76.16;99883.81;6283228;22;20215;-65
2023/03/04 00:44:50;;;;;;;22.30;12.43;;;1.00;99.90;;;0.64;75.91;99866.06;6282395;22;20176;-66
2023/03/04 00:47:18;;;;;;;28.27;13.40;;;1.00;99.90;;;0.64;76.18;99861.00;6280072;22;20638;-65
2023/03/04 00:49:47;;;;;;;22.10;12.90;;;1.00;99.90;;;0.65;75.93;99872.84;6284124;22;20185;-65
2023/03/04 00:52:15;;;;;;;20.97;12.03;;;1.00;99.90;;;0.64;76.38;99866.06;6286090;22;20180;-65
2023/03/04 00:54:44;;;;;;;22.07;12.80;;;1.00;99.90;;;0.65;76.48;99871.16;6286526;22;20199;-65
2023/03/04 00:57:13;;;;;;;23.63;12.67;;;1.00;99.90;;;0.64;76.05;99861.00;6286667;22;20195;-65
2023/03/04 00:59:43;;;;;;;26.53;13.90;;;1.00;99.90;;;0.65;76.70;99858.47;6285809;22;20180;-66
2023/03/04 01:02:12;;;;;;;25.67;12.77;;;1.10;99.90;;;0.65;76.34;99850.88;6283637;22;20607;-66
2023/03/04 01:04:41;;;;;;;27.97;14.43;;;1.00;99.90;;;0.67;76.48;99841.66;6283734;22;20503;-64
2023/03/04 01:07:10;;;;;;;24.93;13.93;;;1.00;99.90;;;0.67;76.31;99831.50;6282084;22;20176;-67
2023/03/04 01:09:39;;;;;;;27.27;15.00;;;1.00;99.90;;;0.67;76.39;99826.44;6282130;22;20231;-67
2023/03/04 01:12:08;;;;;;;24.00;13.67;;;1.00;99.90;;;0.68;76.40;99837.44;6279505;22;20278;-66
2023/03/04 01:14:38;;;;;;;28.60;13.97;;;1.00;99.90;;;0.69;75.71;99823.94;6281293;22;20208;-65
2023/03/04 01:17:06;;;;;;;27.50;14.07;;;1.00;99.90;;;0.67;76.03;99818.81;6280802;22;20172;-67
2023/03/04 01:19:35;;;;;;;24.53;13.63;;;1.00;99.90;;;0.67;76.01;99811.22;6281243;22;20203;-66
2023/03/04 01:22:03;;;;;;;27.70;14.37;;;1.00;99.90;;;0.68;76.01;99801.94;6282906;22;20176;-67
2023/03/04 01:24:31;;;;;;;23.90;13.10;;;1.00;99.90;;;0.66;75.82;99799.38;6281538;22;20175;-69
2023/03/04 01:27:00;;;;;;;25.83;12.70;;;1.00;99.90;;;0.63;75.48;99785.75;6282442;22;20224;-65
2023/03/04 01:29:28;;;;;;;24.10;13.53;;;1.00;99.90;;;0.60;75.39;99786.53;6284560;22;20649;-66
2023/03/04 01:31:58;;;;;;;22.37;12.43;;;0.90;99.90;;;0.61;75.59;99762.03;6284207;22;20201;-66
2023/03/04 01:34:27;;;;;;;28.83;13.90;;;0.90;99.90;;;0.59;75.50;99758.59;6284162;22;20173;-66
2023/03/04 01:36:55;;;;;;;24.07;13.33;;;0.90;99.90;;;0.55;75.79;99729.78;6283615;22;20177;-65
2023/03/04 01:39:24;;;;;;;30.13;15.03;;;0.90;99.90;;;0.53;75.98;99720.44;6281843;22;20184;-65
2023/03/04 01:41:52;;;;;;;28.33;15.27;;;0.90;99.90;;;0.52;76.06;99718.75;6286821;22;20177;-66
2023/03/04 01:44:21;;;;;;;29.67;15.40;;;0.90;99.90;;;0.52;76.58;99744.09;6286375;22;20628;-66
2023/03/04 01:46:53;;;;;;;27.53;14.53;;;0.80;99.90;;;0.47;76.98;99721.16;6285205;22;20175;-66
2023/03/04 01:49:23;;;;;;;25.20;12.93;;;0.90;99.90;;;0.48;76.96;99710.22;6284839;22;20161;-66
2023/03/04 01:51:54;;;;;;;25.37;13.40;;;0.80;99.90;;;0.47;77.01;99729.59;6284780;22;20196;-65
2023/03/04 01:54:23;;;;;;;24.97;11.60;;;0.80;99.90;;;0.47;76.25;99716.06;6286005;22;20165;-66
2023/03/04 01:56:53;;;;;;;22.97;12.23;;;0.80;99.90;;;0.47;75.87;99711.00;6286730;22;20188;-66
2023/03/04 01:59:25;;;;;;;20.37;11.23;;;0.80;99.90;;;0.46;75.95;99705.09;6286003;22;20183;-66
2023/03/04 02:01:56;;;;;;;23.17;13.67;;;0.80;99.90;;;0.48;76.32;99700.06;6283085;22;20191;-66
2023/03/04 02:04:28;;;;;;;24.63;12.93;;;0.90;99.90;;;0.48;76.31;99693.31;6281770;22;20165;-67
2023/03/04 02:06:59;;;;;;;25.20;13.63;;;0.80;99.90;;;0.47;76.69;99681.44;6280774;22;20161;-65
2023/03/04 02:09:30;;;;;;;26.17;14.77;;;0.90;99.90;;;0.47;76.54;99663.72;6280320;22;20197;-65
2023/03/04 02:12:07;;;;;;;22.10;13.30;;;0.80;99.90;;;0.46;76.66;99667.06;6279781;22;20562;-66
2023/03/04 02:14:35;;;;;;;24.83;13.60;;;0.80;99.90;;;0.45;76.87;99692.41;6280305;22;20161;-66
2023/03/04 02:17:10;;;;;;;27.60;13.40;;;0.80;99.90;;;0.45;77.12;99688.19;6281267;22;20640;-66
2023/03/04 02:19:49;;;;;;;23.63;12.03;;;0.80;99.90;;;0.46;77.24;99689.03;6280643;22;20196;-66
2023/03/04 02:22:17;;;;;;;23.40;13.30;;;0.80;99.90;;;0.46;77.26;99681.44;6282398;22;20160;-66
2023/03/04 02:24:53;;;;;;;26.37;12.83;;;0.80;99.90;;;0.47;77.48;99678.06;6282536;22;20188;-65
2023/03/04 02:27:23;;;;;;;24.50;12.43;;;0.80;99.90;;;0.48;77.35;99672.19;6281939;22;20165;-65
2023/03/04 02:29:51;;;;;;;23.37;12.43;;;0.80;99.90;;;0.51;77.58;99681.53;6281998;22;20193;-66
2023/03/04 02:32:20;;;;;;;20.33;11.50;;;0.80;99.90;;;0.51;77.31;99679.00;6282583;22;20200;-67
2023/03/04 02:34:50;;;;;;;23.50;12.93;;;0.80;99.90;;;0.51;77.43;99694.19;6281360;22;20638;-67
2023/03/04 02:37:20;;;;;;;21.50;12.13;;;0.90;99.90;;;0.53;77.70;99682.44;6281956;22;20172;-67
2023/03/04 02:39:50;;;;;;;26.87;13.00;;;0.90;99.90;;;0.54;78.01;99692.59;6282982;22;20181;-65
2023/03/04 02:42:18;;;;;;;25.50;12.53;;;1.00;99.90;;;0.55;77.84;99688.38;6282884;22;20227;-65
2023/03/04 02:44:49;;;;;;;23.97;12.67;;;0.90;99.90;;;0.57;77.49;99690.13;6283599;22;20246;-66
2023/03/04 02:47:19;;;;;;;22.87;12.07;;;0.90;99.90;;;0.57;78.14;99690.13;6282078;22;20165;-66
2023/03/04 02:49:47;;;;;;;24.67;13.00;;;0.90;99.90;;;0.58;77.86;99678.31;6282080;22;20644;-65
2023/03/04 02:52:21;;;;;;;29.47;15.93;;;0.90;99.90;;;0.59;77.96;99690.16;6283207;22;20523;-66
2023/03/04 02:54:49;;;;;;;25.20;13.43;;;0.90;99.90;;;0.61;78.59;99683.44;6282292;22;20672;-67
2023/03/04 02:57:18;;;;;;;26.73;13.63;;;1.00;99.90;;;0.63;78.01;99682.69;6282631;22;20173;-66
2023/03/04 02:59:47;;;;;;;24.63;14.23;;;0.90;99.90;;;0.65;78.57;99685.22;6282989;22;20238;-65
2023/03/04 03:02:16;;;;;;;26.50;14.33;;;1.00;99.90;;;0.66;78.69;99671.72;6282559;22;20180;-66
2023/03/04 03:04:44;;;;;;;25.27;13.93;;;1.00;99.90;;;0.69;78.17;99671.78;6282045;22;20203;-65
2023/03/04 03:07:13;;;;;;;23.80;14.47;;;1.00;99.90;;;0.73;78.17;99665.97;6283636;22;20173;-66
2023/03/04 03:09:41;;;;;;;24.80;14.23;;;1.00;99.90;;;0.75;78.30;99671.94;6283374;22;20177;-67
2023/03/04 03:12:10;;;;;;;26.33;14.67;;;1.10;99.90;;;0.76;78.28;99677.88;6281385;22;20207;-66
2023/03/04 03:14:38;;;;;;;26.47;15.00;;;1.10;99.90;;;0.78;78.37;99661.88;6282645;22;20172;-66
2023/03/04 03:17:09;;;;;;;24.50;14.03;;;1.10;99.90;;;0.79;78.35;99676.25;6282550;22;20226;-65
2023/03/04 03:19:37;;;;;;;24.27;13.30;;;1.10;99.90;;;0.79;77.85;99663.56;6282405;22;20165;-65
2023/03/04 03:22:07;;;;;;;22.17;12.90;;;1.10;99.90;;;0.82;78.11;99666.19;6282048;22;20231;-66
2023/03/04 03:24:35;;;;;;;30.47;15.47;;;1.10;99.90;;;0.82;78.33;99668.72;6282376;22;20179;-66
2023/03/04 03:27:04;;;;;;;27.63;15.37;;;1.20;99.90;;;0.83;77.97;99664.50;6280639;22;20557;-68
2023/03/04 03:29:32;;;;;;;24.57;14.63;;;1.20;99.90;;;0.85;77.79;99658.66;6278120;22;20197;-68
2023/03/04 03:32:01;;;;;;;27.03;15.13;;;1.20;99.90;;;0.88;77.90;99666.28;6277168;22;20193;-68
2023/03/04 03:34:31;;;;;;;23.70;13.53;;;1.20;99.90;;;0.87;77.87;99656.13;6277638;22;20173;-68
2023/03/04 03:36:59;;;;;;;23.87;13.83;;;1.20;99.90;;;0.90;78.03;99657.03;6276898;22;20188;-69
2023/03/04 03:39:28;;;;;;;26.13;13.03;;;1.20;99.90;;;0.90;78.02;99649.44;6278412;22;20173;-67
2023/03/04 03:41:56;;;;;;;26.07;14.63;;;1.20;99.90;;;0.93;78.03;99646.13;6276140;22;20681;-68
2023/03/04 03:44:24;;;;;;;26.20;13.80;;;1.20;99.90;;;0.93;77.52;99634.28;6276417;22;20173;-66
2023/03/04 03:46:53;;;;;;;25.40;15.40;;;1.30;99.90;;;0.96;78.16;99647.03;6283243;22;20172;-66
2023/03/04 03:49:21;;;;;;;25.60;15.13;;;1.30;99.90;;;0.98;77.34;99633.53;6283319;22;20228;-65
2023/03/04 03:51:51;;;;;;;24.70;14.37;;;1.30;99.90;;;1.02;77.51;99640.38;6281255;22;20227;-66
2023/03/04 03:54:20;;;;;;;22.33;13.47;;;1.30;99.90;;;1.05;77.78;99637.91;6282463;22;20173;-64
2023/03/04 03:56:48;;;;;;;26.57;13.53;;;1.40;99.90;;;1.05;77.08;99640.44;6282791;22;20172;-65
2023/03/04 03:59:16;;;;;;;25.57;13.87;;;1.40;99.90;;;1.07;77.66;99628.63;6281159;22;20183;-64
2023/03/04 04:01:45;;;;;;;26.10;14.67;;;1.40;99.90;;;1.07;77.67;99629.50;6281877;22;20238;-64
2023/03/04 04:04:14;;;;;;;23.17;14.10;;;1.40;99.90;;;1.10;77.15;99631.22;6281695;22;20199;-67
2023/03/04 04:06:42;;;;;;;26.30;15.67;;;1.40;99.90;;;1.12;77.55;99639.72;6282287;22;20252;-66
2023/03/04 04:09:12;;;;;;;24.93;15.30;;;1.40;99.90;;;1.12;77.63;99634.66;6281191;22;20176;-66
2023/03/04 04:11:40;;;;;;;23.97;14.33;;;1.50;99.90;;;1.15;77.18;99624.56;6282100;22;20586;-66
2023/03/04 04:14:12;;;;;;;25.37;14.60;;;1.50;99.90;;;1.14;77.27;99620.31;6280869;22;20641;-66
2023/03/04 04:16:40;;;;;;;24.63;14.53;;;1.60;99.90;;;1.19;77.09;99624.66;6280945;22;20161;-69
2023/03/04 04:19:16;;;;;;;29.03;15.00;;;1.50;99.90;;;1.21;77.01;99617.06;6281621;22;20207;-65
2023/03/04 04:21:46;;;;;;;23.87;14.10;;;1.50;99.90;;;1.24;77.05;99623.88;6281085;22;20519;-66
2023/03/04 04:24:16;;;;;;;22.97;14.50;;;1.60;99.90;;;1.25;76.71;99620.50;6282936;22;20264;-65
2023/03/04 04:26:45;;;;;;;25.47;13.20;;;1.60;99.90;;;1.25;76.81;99623.91;6282667;22;20193;-66
2023/03/04 04:29:15;;;;;;;25.83;14.70;;;1.60;99.90;;;1.28;76.75;99618.03;6282308;22;20250;-66
2023/03/04 04:31:43;;;;;;;22.03;13.60;;;1.60;99.90;;;1.31;76.16;99608.78;6281209;22;20281;-66
2023/03/04 04:34:11;;;;;;;24.20;14.07;;;1.60;99.90;;;1.35;76.65;99614.78;6282109;22;20180;-65
2023/03/04 04:36:40;;;;;;;24.93;15.77;;;1.70;99.90;;;1.35;76.23;99613.09;6281792;22;20683;-66
2023/03/04 04:39:08;;;;;;;20.67;13.63;;;1.70;99.90;;;1.37;76.39;99608.06;6281621;22;20183;-65
2023/03/04 04:41:42;;;;;;;22.80;13.70;;;1.70;99.90;;;1.41;75.85;99604.75;6282343;22;20172;-65
2023/03/04 04:44:12;;;;;;;21.50;13.37;;;1.70;99.90;;;1.42;75.86;99604.78;6282663;22;20161;-66
2023/03/04 04:46:41;;;;;;;23.57;12.83;;;1.80;99.90;;;1.43;75.56;99614.09;6282353;22;20173;-65
2023/03/04 04:49:10;;;;;;;24.17;14.83;;;1.80;99.90;;;1.41;75.63;99605.59;6282726;22;20181;-62
2023/03/04 04:51:39;;;;;;;20.93;13.20;;;1.80;99.90;;;1.42;75.42;99602.22;6281900;22;20222;-66
2023/03/04 04:54:08;;;;;;;23.50;13.47;;;1.80;99.90;;;1.43;75.22;99601.41;6283311;22;20201;-65
2023/03/04 04:56:38;;;;;;;21.03;12.90;;;1.80;99.90;;;1.47;75.73;99601.47;6282297;22;20173;-65
2023/03/04 04:59:07;;;;;;;24.33;13.73;;;1.80;99.90;;;1.49;75.23;99602.34;6283485;22;20622;-65
2023/03/04 05:01:36;;;;;;;24.30;13.80;;;1.80;99.90;;;1.51;75.57;99601.56;6281545;22;20555;-64
2023/03/04 05:04:05;;;;;;;18.37;11.83;;;1.80;99.90;;;1.53;74.88;99599.03;6281715;22;20181;-65
2023/03/04 05:06:33;;;;;;;21.27;12.37;;;1.80;99.90;;;1.54;75.21;99608.34;6282106;22;20172;-65
2023/03/04 05:09:03;;;;;;;25.37;13.73;;;1.90;99.90;;;1.56;75.47;99599.94;6281371;22;20173;-65
2023/03/04 05:11:31;;;;;;;22.10;13.07;;;1.80;99.90;;;1.59;74.95;99594.94;6281930;22;20303;-66
2023/03/04 05:14:01;;;;;;;20.80;12.70;;;1.80;99.90;;;1.59;75.18;99596.63;6281506;22;20204;-65
2023/03/04 05:16:30;;;;;;;23.10;12.73;;;1.90;99.90;;;1.58;75.06;99588.13;6281596;22;20621;-65
2023/03/04 05:18:58;;;;;;;21.47;12.17;;;1.90;99.90;;;1.57;75.54;99595.72;6282802;22;20177;-65
2023/03/04 05:21:27;;;;;;;21.93;13.07;;;1.90;99.90;;;1.57;75.07;99590.63;6282588;22;20610;-66
2023/03/04 05:23:55;;;;;;;21.40;12.90;;;1.90;99.90;;;1.55;75.38;99583.00;6281410;22;20238;-66
2023/03/04 05:26:23;;;;;;;21.60;13.53;;;1.90;99.90;;;1.54;75.53;99585.50;6278895;22;20176;-66
2023/03/04 05:28:52;;;;;;;19.30;12.27;;;1.90;99.90;;;1.57;75.01;99583.03;6280637;22;20196;-65
2023/03/04 05:31:22;;;;;;;21.50;12.40;;;1.90;99.90;;;1.55;75.63;99572.00;6280102;22;20177;-64
2023/03/04 05:33:50;;;;;;;23.20;12.07;;;1.90;99.90;;;1.57;75.69;99567.78;6279959;22;20204;-66
2023/03/04 05:36:19;;;;;;;21.23;12.23;;;1.90;99.90;;;1.54;74.89;99571.13;6280427;22;20177;-71
2023/03/04 05:38:47;;;;;;;19.40;12.20;;;1.80;99.90;;;1.54;75.42;99572.81;6276669;22;20231;-71
2023/03/04 05:41:17;;;;;;;20.60;12.43;;;1.90;99.90;;;1.56;75.75;99581.31;6275220;22;20180;-69
2023/03/04 05:43:46;;;;;;;21.57;11.37;;;1.90;99.90;;;1.57;75.74;99583.03;6280449;22;20622;-69
2023/03/04 05:46:16;;;;;;;20.93;12.47;;;1.90;99.90;;;1.58;75.34;99579.66;6274742;22;20272;-70
2023/03/04 05:48:47;;;;;;;20.37;12.40;;;1.90;99.90;;;1.55;75.69;99577.94;6276190;22;20567;-68
2023/03/04 05:51:15;;;;;;;17.87;11.90;;;1.90;99.90;;;1.56;74.88;99574.56;6276986;22;20537;-67
2023/03/04 05:53:44;;;;;;;18.57;11.17;;;1.90;99.90;;;1.57;75.73;99572.88;6276028;22;20712;-69
2023/03/04 05:56:14;;;;;;;21.70;12.03;;;1.90;99.90;;;1.57;75.78;99570.31;6276269;22;20200;-70
2023/03/04 05:58:44;;;;;;;18.10;11.43;;;1.90;99.90;;;1.59;75.71;99573.75;6274727;22;20184;-68
2023/03/04 06:01:12;;;;;;;17.87;11.13;;;2.00;99.90;;;1.60;75.69;99576.31;6275550;22;20484;-69
2023/03/04 06:03:43;;;;;;;18.23;11.27;;;1.90;99.90;;;1.58;75.28;99562.72;6275526;22;20226;-70
2023/03/04 06:06:13;;;;;;;20.07;11.97;;;1.90;99.90;;;1.59;75.60;99561.06;6275776;22;20165;-70
2023/03/04 06:08:41;;;;;;;19.93;11.13;;;1.90;99.90;;;1.60;75.71;99560.22;6275552;22;20224;-69
2023/03/04 06:11:10;;;;;;;19.80;11.67;;;1.90;99.90;;;1.60;75.95;99555.16;6274993;22;20172;-69
2023/03/04 06:13:39;;;;;;;20.20;11.47;;;1.90;99.90;;;1.59;75.52;99550.91;6275206;22;20193;-66
2023/03/04 06:16:08;;;;;;;20.00;10.77;;;1.90;99.90;;;1.59;75.53;99549.22;6276696;22;20173;-70
2023/03/04 06:18:36;;;;;;;17.87;11.73;;;1.90;99.90;;;1.62;75.55;99548.41;6276117;22;20260;-66
2023/03/04 06:21:06;;;;;;;19.50;11.73;;;2.00;99.90;;;1.66;75.55;99550.19;6278081;22;20177;-66
2023/03/04 06:23:36;;;;;;;22.53;12.17;;;2.00;99.90;;;1.68;75.25;99549.34;6279089;22;20228;-67
2023/03/04 06:26:08;;;;;;;16.70;11.60;;;2.00;99.90;;;1.69;75.34;99550.22;6277637;22;20483;-64
2023/03/04 06:28:36;;;;;;;17.53;11.57;;;2.00;99.90;;;1.68;76.18;99549.34;6275892;22;20570;-66
2023/03/04 06:31:05;;;;;;;19.73;11.50;;;2.00;99.90;;;1.68;75.78;99549.34;6277409;22;20177;-68
2023/03/04 06:33:34;;;;;;;19.47;10.90;;;2.00;99.90;;;1.66;75.69;99545.09;6275714;22;20665;-65
2023/03/04 06:36:03;;;;;;;20.97;11.43;;;2.00;99.90;;;1.62;76.02;99553.47;6275006;22;20227;-64
2023/03/04 06:38:31;;;;;;;18.53;11.37;;;2.00;99.90;;;1.63;76.04;99543.34;6276293;22;20637;-64
2023/03/04 06:41:08;;;;;;;17.80;11.20;;;2.00;99.90;;;1.64;75.66;99542.53;6278141;22;20489;-64
2023/03/04 06:43:37;;;;;;;19.00;12.20;;;2.00;99.90;;;1.66;76.30;99562.88;6277811;22;20161;-66
2023/03/04 06:46:07;;;;;;;18.23;11.03;;;2.00;99.90;;;1.66;76.28;99548.50;6275755;22;20177;-63
2023/03/04 06:48:35;;;;;;;17.37;11.20;;;2.00;99.90;;;1.67;76.11;99539.19;6275044;22;20774;-66
2023/03/04 06:51:09;;;;;;;20.27;11.20;;;2.00;99.90;;;1.68;76.08;99540.88;6274594;22;20676;-66
2023/03/04 06:53:38;;;;;;;19.90;11.13;;;2.00;99.90;;;1.68;76.10;99543.44;6275383;22;20189;-65
2023/03/04 06:56:10;;;;;;;22.30;12.33;;;2.00;99.90;;;1.67;76.08;99537.50;6275198;22;20179;-62
2023/03/04 06:58:39;;;;;;;18.40;11.30;;;2.00;99.90;;;1.66;76.06;99545.97;6276356;22;20222;-63
2023/03/04 07:01:16;;;;;;;20.50;11.30;;;2.00;99.90;;;1.66;75.82;99542.56;6274137;22;20184;-62
2023/03/04 07:03:46;;;;;;;17.47;10.20;;;2.00;99.90;;;1.68;75.63;99533.28;6276184;22;20165;-66
2023/03/04 07:06:17;;;;;;;16.37;11.27;;;2.00;99.90;;;1.68;75.35;99545.97;6273729;22;20614;-63
2023/03/04 07:08:46;;;;;;;16.23;9.80;;;2.00;99.90;;;1.68;76.12;99551.91;6277356;22;20218;-64
2023/03/04 07:11:17;;;;;;;18.50;11.77;;;2.00;99.90;;;1.68;75.74;99554.44;6277169;22;20219;-63
2023/03/04 07:13:46;;;;;;;20.03;10.87;;;2.00;99.90;;;1.70;76.50;99546.84;6279349;22;20185;-63
2023/03/04 07:16:20;;;;;;;18.60;11.47;;;2.10;99.90;;;1.68;76.32;99549.34;6279682;22;20645;-63
2023/03/04 07:18:48;;;;;;;21.20;12.00;;;2.10;99.90;;;1.70;76.35;99546.84;6277716;22;20598;-65
2023/03/04 07:21:19;;;;;;;18.43;11.40;;;2.10;99.90;;;1.75;76.11;99539.31;6277083;22;20424;-64
2023/03/04 07:23:47;;;;;;;19.33;10.57;;;2.10;99.90;;;1.78;75.74;99549.53;6275781;22;20173;-63
2023/03/04 07:26:18;;;;;;;21.47;11.77;;;2.10;99.90;;;1.80;75.81;99548.69;6277386;22;20180;-63
2023/03/04 07:28:46;;;;;;;18.90;10.93;;;2.10;99.90;;;1.82;75.93;99525.88;6277323;22;20257;-64
2023/03/04 07:31:22;;;;;;;16.23;10.57;;;2.20;99.90;;;1.81;75.83;99540.25;6276552;22;20184;-65
2023/03/04 07:33:51;;;;;;;19.97;10.43;;;2.20;99.90;;;1.84;75.81;99536.91;6278205;22;20505;-67
2023/03/04 07:36:20;;;;;;;16.83;10.27;;;2.20;99.90;;;1.83;75.69;99536.03;6277862;22;20226;-71
2023/03/04 07:38:50;;;;;;;20.37;10.10;;;2.20;99.90;;;1.86;74.94;99537.78;6277671;22;20189;-66
2023/03/04 07:41:22;;;;;;;14.93;9.33;;;2.20;99.90;;;1.87;74.82;99534.41;6278319;22;20211;-69
2023/03/04 07:43:51;;;;;;;17.80;10.67;;;2.20;99.90;;;1.87;75.14;99530.16;6276234;22;20641;-67
2023/03/04 07:46:20;;;;;;;16.43;9.60;;;2.20;99.90;;;1.86;75.26;99523.41;6279406;22;20177;-66
2023/03/04 07:48:49;;;;;;;18.73;9.67;;;2.20;99.90;;;1.88;75.34;99521.75;6277961;22;20471;-66
2023/03/04 07:51:20;;;;;;;16.40;10.03;;;2.20;99.90;;;1.88;74.86;99514.13;6276930;22;20432;-70
2023/03/04 07:53:51;;;;;;;16.73;10.37;;;2.20;99.90;;;1.88;75.04;99519.22;6278162;22;20211;-69
2023/03/04 07:56:25;;;;;;;21.20;10.40;;;2.30;99.90;;;1.89;74.91;99503.13;6279044;22;20160;-67
2023/03/04 07:58:53;;;;;;;16.13;10.13;;;2.30;99.90;;;1.94;74.38;99516.72;6277153;22;20214;-66
2023/03/04 08:01:25;;;;;;;15.43;9.70;;;2.30;99.90;;;1.95;74.20;99512.50;6280422;22;20279;-69
2023/03/04 08:03:54;;;;;;;15.73;9.27;;;2.30;99.90;;;1.97;74.89;99510.84;6281289;22;20168;-64
2023/03/04 08:06:23;;;;;;;18.73;9.93;;;2.30;99.90;;;2.00;74.14;99510.06;6275270;22;20211;-66
2023/03/04 08:08:57;;;;;;;15.37;9.70;;;2.30;99.90;;;2.00;74.14;99513.44;6274281;22;20611;-62
2023/03/04 08:11:29;;;;;;;18.03;9.63;;;2.40;99.90;;;2.04;74.25;99505.03;6274106;22;20203;-63
2023/03/04 08:13:59;;;;;;;15.40;9.50;;;2.40;99.90;;;2.08;74.26;99508.47;6273639;22;20200;-64
2023/03/04 08:16:28;;;;;;;16.67;9.73;;;2.40;99.90;;;2.08;74.17;99508.47;6275010;22;20177;-66
2023/03/04 08:19:01;;;;;;;18.77;9.63;;;2.40;99.90;;;2.10;73.92;99500.03;6275490;22;20195;-67
2023/03/04 08:21:30;;;;;;;13.33;8.70;;;2.40;99.90;;;2.11;73.76;99494.13;6278714;22;20165;-64
2023/03/04 08:24:01;;;;;;;14.63;9.63;;;2.40;99.90;;;2.13;73.66;99499.22;6281484;22;20291;-65
2023/03/04 08:26:37;;;;;;;16.83;9.77;;;2.50;99.90;;;2.16;73.15;99496.72;6283946;22;20207;-64
2023/03/04 08:29:11;;;;;;;16.05;9.20;;;2.50;99.90;;;2.20;72.85;99492.53;6281165;22;20390;-64
2023/03/04 08:31:45;;;;;;;15.53;9.17;;;2.50;99.90;;;2.23;73.20;99502.72;6280496;22;20165;-67
2023/03/04 08:34:17;;;;;;;18.10;12.13;;;2.50;99.90;;;2.21;73.47;99495.09;6290195;22;20516;-64
2023/03/04 08:36:46;;;;;;;15.30;10.27;;;2.60;99.90;;;2.22;72.94;99486.63;6284469;22;20176;-67
2023/03/04 08:39:19;;;;;;;15.98;11.18;;;2.50;99.90;;;2.24;73.37;99494.28;6297101;22;20413;-68
2023/03/04 08:41:49;;;;;;;16.77;11.47;;;2.60;99.90;;;2.28;72.58;99485.84;6290096;22;20449;-66
2023/03/04 08:44:19;;;;;;;18.50;12.30;;;2.60;99.90;;;2.31;73.05;99490.97;6292831;22;20409;-66
2023/03/04 08:46:48;;;;;;;13.53;9.00;;;2.60;99.90;;;2.31;73.06;99489.28;6294565;22;20165;-68
2023/03/04 08:49:16;;;;;;;17.40;9.27;;;2.60;99.90;;;2.35;72.06;99485.94;6300995;22;20206;-68
2023/03/04 08:51:44;;;;;;;16.97;10.63;;;2.60;99.90;;;2.39;72.39;99484.28;6302078;22;20227;-69
2023/03/04 08:54:13;;;;;;;15.07;8.90;;;2.60;99.90;;;2.40;71.96;99493.66;6299888;22;20173;-70
2023/03/04 08:56:42;;;;;;;15.47;9.43;;;2.70;99.90;;;2.41;72.18;99501.28;6294006;22;20172;-70
2023/03/04 08:59:12;;;;;;;18.93;10.03;;;2.70;99.90;;;2.40;72.58;99489.41;6300447;22;20184;-68
2023/03/04 09:01:41;;;;;;;15.20;9.87;;;2.70;99.90;;;2.38;72.22;99485.97;6291181;22;20199;-70
2023/03/04 09:04:10;;;;;;;16.17;9.50;;;2.70;99.90;;;2.38;72.63;99475.81;6288563;22;20303;-67
2023/03/04 09:06:38;;;;;;;14.17;10.10;;;2.70;99.90;;;2.40;72.68;99481.78;6298502;22;20194;-70
2023/03/04 09:09:07;;;;;;;15.27;9.27;;;2.70;99.90;;;2.44;72.25;99481.81;6297577;22;20153;-78
2023/03/04 09:11:36;;;;;;;16.90;9.27;;;2.70;99.90;;;2.40;72.10;99461.44;6278353;22;20608;-71
2023/03/04 09:14:05;;;;;;;18.17;9.83;;;2.70;99.90;;;2.46;72.48;99459.78;6327834;22;20161;-71
2023/03/04 09:16:38;;;;;;;14.70;9.27;;;2.80;99.90;;;2.49;72.93;99458.16;6331900;22;20148;-69
2023/03/04 09:19:09;;;;;;;19.73;9.33;;;2.80;99.90;;;2.55;71.99;99452.28;6330700;22;20147;-69
2023/03/04 09:21:37;;;;;;;18.65;10.55;;;2.90;99.90;;;2.61;72.09;99457.41;6326206;22;20389;-73
2023/03/04 09:24:07;;;;;;;17.67;9.60;;;2.90;99.90;;;2.65;72.08;99446.44;6323625;22;20180;-73
2023/03/04 09:26:35;;;;;;;19.90;9.17;;;3.00;99.90;;;2.67;71.87;99454.97;6329794;22;20160;-71
2023/03/04 09:29:05;;;;;;;17.23;8.87;;;3.00;99.90;;;2.69;72.24;99455.84;6306188;22;20188;-70
2023/03/04 09:31:35;;;;;;;19.73;9.20;;;3.00;99.90;;;2.71;71.79;99456.69;6295675;22;20160;-70
2023/03/04 09:34:03;;;;;;;14.50;9.33;;;3.00;99.90;;;2.69;72.26;99460.94;6294473;22;20183;-69
2023/03/04 09:36:32;;;;;;;15.53;9.10;;;3.00;99.90;;;2.67;72.32;99455.81;6297368;22;20218;-68
2023/03/04 09:39:01;;;;;;;13.20;8.40;;;3.00;99.90;;;2.70;72.31;99457.53;6291614;22;20173;-79
2023/03/04 09:41:40;;;;;;;15.60;8.97;;;3.10;99.90;;;2.69;72.33;99458.38;6278105;22;20176;-79
2023/03/04 09:44:21;;;;;;;17.40;9.73;;;3.00;99.90;;;2.69;72.17;99452.41;6273072;22;20176;-72
2023/03/04 09:47:00;;;;;;;14.47;8.87;;;3.10;99.90;;;2.71;72.39;99446.50;6278572;22;20175;-70
2023/03/04 09:49:30;;;;;;;13.70;8.87;;;3.10;99.90;;;2.73;71.67;99432.13;6281673;22;20169;-78
2023/03/04 09:52:10;;;;;;;16.87;10.13;;;3.10;99.90;;;2.75;72.07;99438.06;6288150;22;20186;-73
2023/03/04 09:55:06;;;;;;;17.83;8.77;;;3.10;99.90;;;2.74;71.78;99438.91;6297045;22;20156;-73
2023/03/04 09:57:49;;;;;;;13.67;8.70;;;3.10;99.90;;;2.72;71.97;99443.13;6292353;22;20183;-72
2023/03/04 10:00:21;;;;;;;16.47;9.10;;;3.10;99.90;;;2.73;72.35;99437.22;6288992;22;20149;-73
2023/03/04 10:03:11;;;;;;;16.47;9.23;;;3.10;99.90;;;2.79;72.05;99449.13;6283979;22;20540;-76
2023/03/04 10:05:49;;;;;;;16.73;8.47;;;3.10;99.90;;;2.76;71.81;99427.09;6287505;22;20161;-72
2023/03/04 10:08:40;;;;;;;16.20;8.33;;;3.10;99.90;;;2.75;72.16;99442.31;6287067;22;20483;-77
2023/03/04 10:11:22;;;;;;;15.37;8.90;;;3.10;99.90;;;2.73;72.51;99429.59;6286242;22;20673;-73
2023/03/04 10:14:03;;;;;;;16.20;8.73;;;3.10;99.90;;;2.76;72.42;99431.28;6285921;22;20157;-75
2023/03/04 10:16:40;;;;;;;13.93;7.60;;;3.10;99.90;;;2.77;72.29;99422.84;6281693;22;20187;-72
2023/03/04 10:19:32;;;;;;;16.20;7.20;;;3.10;99.90;;;2.75;71.87;99422.81;6283440;22;20153;-74
2023/03/04 10:22:01;;;;;;;17.00;7.97;;;3.10;99.90;;;2.76;72.75;99418.56;6280624;22;20161;-80
2023/03/04 10:24:30;;;;;;;13.70;8.23;;;3.10;99.90;;;2.78;73.11;99417.75;6280110;22;20234;-76
2023/03/04 10:27:07;;;;;;;17.23;7.83;;;3.20;99.90;;;2.81;71.77;99411.84;6281305;22;20176;-76
2023/03/04 10:29:36;;;;;;;14.57;8.47;;;3.20;99.90;;;2.86;72.21;99416.13;6281219;22;20200;-74
2023/03/04 10:32:05;;;;;;;18.30;8.47;;;3.20;99.90;;;2.93;72.52;99408.56;6283852;22;20559;-80